Time;durP1;ratioP1;P1;durP2;ratioP2;P2;SDS_P1;SDS_P2;PMS_P1;PMS_P2;Temp;Humidity;BMP_temperature;BMP_pressure;BME280_temperature;BME280_humidity;BME280_pressure;Samples;Min_cycle;Max_cycle;Signal;HPM_P1;HPM_P2
2022/09/14 00:00:30;;;;;;;;;;;23.60;95.00;;;;;;5094400;28;19940;-68
2022/09/14 00:02:56;;;;;;;;;;;23.60;95.00;;;;;;5078613;28;19908;-68
2022/09/14 00:05:21;;;;;;;;;;;23.60;95.00;;;;;;5078831;28;19973;-68
2022/09/14 00:07:47;;;;;;;;;;;23.60;95.10;;;;;;5079653;28;19947;-68
2022/09/14 00:10:13;;;;;;;;;;;23.60;95.10;;;;;;5079191;28;19909;-69
2022/09/14 00:12:39;;;;;;;;;;;23.50;95.00;;;;;;5079434;28;20003;-69
2022/09/14 00:15:06;;;;;;;;;;;23.50;95.00;;;;;;5078701;28;20026;-68
2022/09/14 00:17:32;;;;;;;;;;;23.50;95.00;;;;;;5078743;28;20256;-68
2022/09/14 00:19:58;;;;;;;;;;;23.50;95.00;;;;;;5075870;28;20284;-68
2022/09/14 00:22:23;;;;;;;;;;;23.50;95.10;;;;;;5073674;28;19908;-69
2022/09/14 00:24:49;;;;;;;;;;;23.50;95.10;;;;;;5074667;28;19912;-68
2022/09/14 00:27:15;;;;;;;;;;;23.50;95.30;;;;;;5074172;28;19915;-69
2022/09/14 00:29:41;;;;;;;;;;;23.50;95.10;;;;;;5073562;28;19937;-69
2022/09/14 00:32:06;;;;;;;;;;;23.40;95.00;;;;;;5074178;28;19959;-69
2022/09/14 00:34:33;;;;;;;;;;;23.50;95.10;;;;;;5074867;28;19908;-69
2022/09/14 00:36:59;;;;;;;;;;;23.40;95.10;;;;;;5076034;28;19955;-68
2022/09/14 00:39:26;;;;;;;;;;;23.40;95.10;;;;;;5074863;28;19919;-69
2022/09/14 00:41:53;;;;;;;;;;;23.40;95.10;;;;;;5075927;28;19916;-68
2022/09/14 00:44:18;;;;;;;;;;;23.40;95.10;;;;;;5075787;28;20109;-69
2022/09/14 00:46:44;;;;;;;;;;;23.40;95.10;;;;;;5076458;28;19923;-68
2022/09/14 00:49:15;;;;;;;;;;;23.40;95.10;;;;;;5076202;28;20247;-68
2022/09/14 00:51:44;;;;;;;;;;;23.40;95.10;;;;;;5075956;28;19920;-68
2022/09/14 00:54:10;;;;;;;;;;;23.40;95.00;;;;;;5076946;28;19918;-67
2022/09/14 00:56:35;;;;;;;;;;;23.40;95.10;;;;;;5077538;28;19994;-67
2022/09/14 00:59:05;;;;;;;;;;;23.40;95.10;;;;;;5076823;28;20291;-68
2022/09/14 01:01:31;;;;;;;;;;;23.40;95.00;;;;;;5077675;28;19920;-68
2022/09/14 01:03:56;;;;;;;;;;;23.30;95.00;;;;;;5076515;28;19976;-68
2022/09/14 01:06:35;;;;;;;;;;;23.30;95.00;;;;;;5077197;28;19920;-68
2022/09/14 01:09:19;;;;;;;;;;;23.30;95.00;;;;;;5076126;28;19908;-68
2022/09/14 01:11:48;;;;;;;;;;;23.40;95.00;;;;;;5076645;28;19912;-68
2022/09/14 01:14:14;;;;;;;;;;;23.30;95.00;;;;;;5076978;28;19909;-68
2022/09/14 01:16:55;;;;;;;;;;;23.30;95.00;;;;;;5079784;28;19908;-68
2022/09/14 01:19:53;;;;;;;;;;;23.30;95.00;;;;;;5078711;28;19918;-68
2022/09/14 01:22:32;;;;;;;;;;;23.30;95.00;;;;;;5024895;28;19912;-68
2022/09/14 01:25:16;;;;;;;;;;;23.30;95.00;;;;;;5079838;28;19978;-68
2022/09/14 01:27:43;;;;;;;;;;;23.20;94.90;;;;;;5079861;28;19908;-68
2022/09/14 01:30:21;;;;;;;;;;;23.20;94.90;;;;;;5080439;28;19984;-67
2022/09/14 01:32:47;;;;;;;;;;;23.30;95.00;;;;;;5080410;28;19927;-68
2022/09/14 01:35:17;;;;;;;;;;;23.30;95.00;;;;;;5080963;28;19916;-68
2022/09/14 01:42:54;;;;;;;;;;;23.20;94.90;;;;;;5072231;28;19935;-12
2022/09/14 01:45:21;;;;;;;;;;;23.20;94.90;;;;;;5075881;28;19916;-12
2022/09/14 01:48:04;;;;;;;;;;;23.20;94.90;;;;;;5074310;28;19909;-12
2022/09/14 01:50:37;;;;;;;;;;;23.20;94.90;;;;;;5074246;28;19947;-12
2022/09/14 01:53:18;;;;;;;;;;;23.10;94.90;;;;;;5076346;28;19908;-12
2022/09/14 01:55:45;;;;;;;;;;;23.10;94.90;;;;;;5077401;28;19919;-12
2022/09/14 01:58:21;;;;;;;;;;;23.10;94.90;;;;;;5077320;28;20282;-12
2022/09/14 02:00:47;;;;;;;;;;;23.20;94.90;;;;;;5059313;28;19919;-12
2022/09/14 02:03:16;;;;;;;;;;;23.10;94.90;;;;;;5077495;28;20167;-12
2022/09/14 02:05:46;;;;;;;;;;;23.10;94.90;;;;;;5077051;28;19913;-12
2022/09/14 02:08:12;;;;;;;;;;;23.10;94.90;;;;;;5077914;28;20155;-12
2022/09/14 02:10:39;;;;;;;;;;;23.10;94.90;;;;;;5077624;28;20347;-12
2022/09/14 02:13:05;;;;;;;;;;;23.10;94.90;;;;;;5060624;28;19912;-12
2022/09/14 02:15:31;;;;;;;;;;;23.10;94.80;;;;;;5060988;28;19909;-12
2022/09/14 02:17:57;;;;;;;;;;;23.10;94.80;;;;;;5061818;28;20003;-12
2022/09/14 02:20:29;;;;;;;;;;;23.10;94.80;;;;;;5076981;28;19916;-12
2022/09/14 02:22:54;;;;;;;;;;;23.10;94.80;;;;;;5061314;28;19965;-12
2022/09/14 02:25:20;;;;;;;;;;;23.00;94.80;;;;;;5077559;28;19967;-12
2022/09/14 02:27:47;;;;;;;;;;;23.00;94.80;;;;;;5077881;28;19936;-12
2022/09/14 02:30:12;;;;;;;;;;;23.10;94.80;;;;;;5078740;28;19948;-12
2022/09/14 02:32:44;;;;;;;;;;;23.00;94.80;;;;;;5061080;28;19939;-12
2022/09/14 02:35:15;;;;;;;;;;;23.00;94.80;;;;;;5060800;28;19967;-12
2022/09/14 02:37:56;;;;;;;;;;;23.00;94.80;;;;;;5077689;28;19909;-12
2022/09/14 02:40:27;;;;;;;;;;;23.00;94.70;;;;;;5060151;28;20287;-12
2022/09/14 02:43:11;;;;;;;;;;;23.00;94.70;;;;;;5077115;28;19923;-12
2022/09/14 02:45:40;;;;;;;;;;;23.00;94.70;;;;;;5059819;28;19913;-12
2022/09/14 02:48:21;;;;;;;;;;;23.00;94.70;;;;;;5075756;28;20217;-12
2022/09/14 02:51:14;;;;;;;;;;;22.90;94.70;;;;;;5074288;28;20013;-12
2022/09/14 02:54:05;;;;;;;;;;;22.90;94.70;;;;;;5036721;28;20159;-12
2022/09/14 02:56:31;;;;;;;;;;;22.90;94.70;;;;;;5069724;28;20011;-12
2022/09/14 02:58:57;;;;;;;;;;;22.90;94.70;;;;;;5057352;28;19908;-12
2022/09/14 03:01:23;;;;;;;;;;;22.90;94.60;;;;;;5075676;28;19908;-12
2022/09/14 03:03:49;;;;;;;;;;;22.90;94.60;;;;;;5075428;28;19924;-12
2022/09/14 03:06:14;;;;;;;;;;;22.90;94.60;;;;;;5057428;28;20233;-12
2022/09/14 03:08:40;;;;;;;;;;;22.90;94.60;;;;;;5057904;28;19909;-12
2022/09/14 03:11:06;;;;;;;;;;;22.90;94.60;;;;;;5075444;28;19915;-12
2022/09/14 03:13:33;;;;;;;;;;;22.90;94.60;;;;;;5076112;28;19908;-12
2022/09/14 03:16:03;;;;;;;;;;;22.90;94.60;;;;;;5075125;28;19915;-12
2022/09/14 03:18:29;;;;;;;;;;;22.80;94.60;;;;;;5058683;28;19908;-12
2022/09/14 03:21:00;;;;;;;;;;;22.80;94.60;;;;;;5075654;28;20539;-12
2022/09/14 03:23:26;;;;;;;;;;;22.80;94.60;;;;;;5076781;28;19908;-12
2022/09/14 03:25:51;;;;;;;;;;;22.80;94.60;;;;;;5076128;28;19995;-12
2022/09/14 03:28:16;;;;;;;;;;;22.80;94.60;;;;;;5075233;28;19939;-12
2022/09/14 03:30:42;;;;;;;;;;;22.80;94.60;;;;;;5074123;28;20279;-12
2022/09/14 03:33:07;;;;;;;;;;;22.80;94.60;;;;;;5073446;28;19908;-12
2022/09/14 03:35:33;;;;;;;;;;;22.80;94.60;;;;;;5073787;28;19909;-12
2022/09/14 03:38:01;;;;;;;;;;;22.80;94.60;;;;;;5073083;28;19908;-12
2022/09/14 03:40:27;;;;;;;;;;;22.80;94.60;;;;;;5071990;28;20459;-12
2022/09/14 03:42:53;;;;;;;;;;;22.70;94.60;;;;;;5074220;28;20301;-12
2022/09/14 03:45:19;;;;;;;;;;;22.70;94.50;;;;;;5072542;28;19922;-12
2022/09/14 03:47:45;;;;;;;;;;;22.70;94.50;;;;;;5073388;28;19912;-12
2022/09/14 03:50:11;;;;;;;;;;;22.70;94.50;;;;;;5072649;28;19908;-12
2022/09/14 03:52:37;;;;;;;;;;;22.70;94.50;;;;;;5072378;28;20019;-12
2022/09/14 03:55:04;;;;;;;;;;;22.70;94.50;;;;;;5074281;28;20069;-12
2022/09/14 03:57:30;;;;;;;;;;;22.70;94.50;;;;;;5074296;28;20015;-12
2022/09/14 03:59:55;;;;;;;;;;;22.70;94.50;;;;;;5056191;28;20070;-12
2022/09/14 04:02:21;;;;;;;;;;;22.70;94.50;;;;;;5076046;28;20197;-12
2022/09/14 04:04:49;;;;;;;;;;;22.70;94.50;;;;;;5077837;28;20013;-12
2022/09/14 04:07:15;;;;;;;;;;;22.70;94.50;;;;;;5076780;28;19963;-12
2022/09/14 04:09:41;;;;;;;;;;;22.60;94.50;;;;;;5059384;28;19943;-12
2022/09/14 04:12:07;;;;;;;;;;;22.70;94.50;;;;;;5076608;28;19999;-12
2022/09/14 04:14:33;;;;;;;;;;;22.60;94.50;;;;;;5076797;28;20226;-12
2022/09/14 04:16:58;;;;;;;;;;;22.60;94.50;;;;;;5074929;28;19908;-12
2022/09/14 04:19:24;;;;;;;;;;;22.60;94.50;;;;;;5077537;28;19956;-12
2022/09/14 04:21:49;;;;;;;;;;;22.60;94.50;;;;;;5075992;28;20006;-12
2022/09/14 04:24:16;;;;;;;;;;;22.60;94.50;;;;;;5059373;28;19924;-12
2022/09/14 04:26:43;;;;;;;;;;;22.60;94.50;;;;;;5059407;28;19908;-12
2022/09/14 04:29:09;;;;;;;;;;;22.60;94.50;;;;;;5076579;28;19991;-12
2022/09/14 04:31:34;;;;;;;;;;;22.60;94.50;;;;;;5077405;28;19935;-12
2022/09/14 04:34:03;;;;;;;;;;;22.60;94.50;;;;;;5077170;28;20216;-12
2022/09/14 04:36:29;;;;;;;;;;;22.60;94.50;;;;;;5076822;28;19936;-12
2022/09/14 04:38:56;;;;;;;;;;;22.60;94.50;;;;;;5077196;28;19920;-12
2022/09/14 04:41:24;;;;;;;;;;;22.60;94.50;;;;;;5076212;28;19950;-12
2022/09/14 04:43:50;;;;;;;;;;;22.60;94.50;;;;;;5076096;28;19917;-12
2022/09/14 04:46:20;;;;;;;;;;;22.50;94.50;;;;;;5076356;28;20228;-12
2022/09/14 04:48:46;;;;;;;;;;;22.50;94.50;;;;;;5076905;28;19908;-12
2022/09/14 04:51:15;;;;;;;;;;;22.50;94.50;;;;;;5062837;28;19935;-12
2022/09/14 04:53:41;;;;;;;;;;;22.50;94.50;;;;;;5080024;28;20515;-12
2022/09/14 04:56:07;;;;;;;;;;;22.50;94.50;;;;;;5080910;28;19908;-12
2022/09/14 04:58:33;;;;;;;;;;;22.50;94.60;;;;;;5079898;28;19909;-12
2022/09/14 05:01:07;;;;;;;;;;;22.50;94.70;;;;;;5068288;22;20273;-11
2022/09/14 05:03:33;;;;;;;;;;;22.40;94.70;;;;;;5068833;28;20251;-11
2022/09/14 05:06:02;;;;;;;;;;;22.50;94.80;;;;;;5075222;28;20431;-11
2022/09/14 05:08:28;;;;;;;;;;;22.40;94.80;;;;;;5056663;28;19924;-11
2022/09/14 05:10:54;;;;;;;;;;;22.40;94.80;;;;;;5073641;28;19908;-11
2022/09/14 05:13:20;;;;;;;;;;;22.40;94.90;;;;;;5056818;28;20308;-11
2022/09/14 05:15:45;;;;;;;;;;;22.40;94.90;;;;;;5075349;28;19963;-11
2022/09/14 05:18:11;;;;;;;;;;;22.40;94.90;;;;;;5078195;28;19974;-11
2022/09/14 05:20:37;;;;;;;;;;;22.40;95.00;;;;;;5060517;28;20019;-11
2022/09/14 05:23:02;;;;;;;;;;;22.40;95.00;;;;;;5077909;28;20387;-11
2022/09/14 05:25:33;;;;;;;;;;;22.40;95.10;;;;;;5079064;28;19912;-11
2022/09/14 05:27:59;;;;;;;;;;;22.40;95.10;;;;;;5078309;28;19909;-11
2022/09/14 05:30:24;;;;;;;;;;;22.40;95.10;;;;;;5060295;28;19987;-11
2022/09/14 05:32:50;;;;;;;;;;;22.40;95.10;;;;;;5076894;28;19908;-11
2022/09/14 05:35:18;;;;;;;;;;;22.30;95.10;;;;;;5059929;28;19909;-11
2022/09/14 05:37:43;;;;;;;;;;;22.40;95.20;;;;;;5077930;28;19963;-11
2022/09/14 05:40:09;;;;;;;;;;;22.30;95.30;;;;;;5077148;28;19951;-11
2022/09/14 05:42:34;;;;;;;;;;;22.30;95.30;;;;;;5041261;28;19916;-11
2022/09/14 05:45:00;;;;;;;;;;;22.30;95.40;;;;;;5057272;28;19944;-11
2022/09/14 05:47:29;;;;;;;;;;;22.30;95.40;;;;;;5056880;28;20238;-12
2022/09/14 05:49:55;;;;;;;;;;;22.30;95.50;;;;;;5057134;28;19920;-12
2022/09/14 05:52:21;;;;;;;;;;;22.30;95.40;;;;;;5039446;28;19909;-12
2022/09/14 05:54:46;;;;;;;;;;;22.30;95.50;;;;;;5057731;28;19924;-12
2022/09/14 05:57:12;;;;;;;;;;;22.30;95.50;;;;;;5057469;28;19917;-12
2022/09/14 05:59:37;;;;;;;;;;;22.30;95.50;;;;;;5039581;28;20007;-12
2022/09/14 06:02:03;;;;;;;;;;;22.30;95.60;;;;;;5056626;28;19984;-12
2022/09/14 06:04:28;;;;;;;;;;;22.30;95.60;;;;;;5057071;28;20288;-11
2022/09/14 06:06:54;;;;;;;;;;;22.30;95.60;;;;;;5057431;28;19913;-11
2022/09/14 06:09:21;;;;;;;;;;;22.30;95.60;;;;;;5057685;28;19908;-11
2022/09/14 06:11:46;;;;;;;;;;;22.30;95.60;;;;;;5039770;28;19973;-11
2022/09/14 06:14:12;;;;;;;;;;;22.20;95.60;;;;;;5057794;28;19909;-11
2022/09/14 06:16:37;;;;;;;;;;;22.20;95.60;;;;;;5057762;28;19909;-11
2022/09/14 06:19:10;;;;;;;;;;;22.20;95.60;;;;;;5040478;28;19916;-11
2022/09/14 06:21:35;;;;;;;;;;;22.30;95.60;;;;;;5055963;28;19916;-11
2022/09/14 06:24:01;;;;;;;;;;;22.30;95.60;;;;;;5057190;28;19912;-11
2022/09/14 06:26:27;;;;;;;;;;;22.20;95.60;;;;;;5040015;28;20418;-11
2022/09/14 06:28:53;;;;;;;;;;;22.20;95.60;;;;;;5056411;28;20286;-11
2022/09/14 06:31:21;;;;;;;;;;;22.20;95.60;;;;;;5039502;28;19909;-11
2022/09/14 06:33:47;;;;;;;;;;;22.20;95.60;;;;;;5039162;28;19981;-11
2022/09/14 06:36:15;;;;;;;;;;;22.20;95.60;;;;;;5057578;28;19913;-11
2022/09/14 06:38:43;;;;;;;;;;;22.20;95.70;;;;;;5039240;28;19909;-11
2022/09/14 06:41:11;;;;;;;;;;;22.20;95.60;;;;;;5055898;28;19909;-11
2022/09/14 06:43:37;;;;;;;;;;;22.20;95.60;;;;;;5056512;28;19909;-11
2022/09/14 06:46:04;;;;;;;;;;;22.20;95.60;;;;;;5039331;28;19909;-11
2022/09/14 06:48:34;;;;;;;;;;;22.20;95.60;;;;;;5056923;28;19943;-11
2022/09/14 06:51:09;;;;;;;;;;;22.20;95.60;;;;;;5057430;28;19932;-11
2022/09/14 06:53:34;;;;;;;;;;;22.20;95.60;;;;;;5056887;28;19912;-11
2022/09/14 06:56:03;;;;;;;;;;;22.20;95.50;;;;;;5038144;28;20019;-11
2022/09/14 06:58:28;;;;;;;;;;;22.20;95.60;;;;;;5056530;28;19995;-11
2022/09/14 07:00:54;;;;;;;;;;;22.10;95.50;;;;;;5039247;28;20425;-11
2022/09/14 07:03:19;;;;;;;;;;;22.10;95.50;;;;;;5038906;28;20280;-11
2022/09/14 07:05:51;;;;;;;;;;;22.10;95.50;;;;;;5056503;28;20505;-11
2022/09/14 07:08:16;;;;;;;;;;;22.20;95.50;;;;;;5057045;28;20385;-11
2022/09/14 07:10:43;;;;;;;;;;;22.10;95.50;;;;;;5057283;28;20266;-11
2022/09/14 07:13:08;;;;;;;;;;;22.10;95.50;;;;;;5056485;28;20183;-11
2022/09/14 07:15:34;;;;;;;;;;;22.10;95.50;;;;;;5040086;28;19909;-11
2022/09/14 07:18:00;;;;;;;;;;;22.10;95.50;;;;;;5055179;28;19919;-11
2022/09/14 07:20:25;;;;;;;;;;;22.10;95.50;;;;;;5056839;28;19975;-11
2022/09/14 07:22:51;;;;;;;;;;;22.10;95.50;;;;;;5056746;28;19978;-11
2022/09/14 07:25:17;;;;;;;;;;;22.10;95.50;;;;;;5055550;28;20385;-11
2022/09/14 07:27:42;;;;;;;;;;;22.10;95.50;;;;;;5056250;28;19909;-11
2022/09/14 07:30:08;;;;;;;;;;;22.10;95.50;;;;;;5056632;28;19913;-11
2022/09/14 07:32:33;;;;;;;;;;;22.10;95.50;;;;;;5056998;28;19920;-11
2022/09/14 07:34:59;;;;;;;;;;;22.10;95.50;;;;;;5056876;28;20284;-11
2022/09/14 07:37:24;;;;;;;;;;;22.10;95.50;;;;;;5038852;28;19917;-11
2022/09/14 07:39:50;;;;;;;;;;;22.10;95.50;;;;;;5056010;28;19920;-11
2022/09/14 07:42:17;;;;;;;;;;;22.00;95.40;;;;;;5038796;28;20336;-11
2022/09/14 07:44:42;;;;;;;;;;;22.10;95.50;;;;;;5055625;28;19921;-11
2022/09/14 07:47:08;;;;;;;;;;;22.10;95.50;;;;;;5056341;28;20049;-11
2022/09/14 07:49:33;;;;;;;;;;;22.00;95.50;;;;;;5055867;28;20198;-11
2022/09/14 07:51:59;;;;;;;;;;;22.00;95.50;;;;;;5056702;28;19909;-11
2022/09/14 07:54:24;;;;;;;;;;;22.00;95.70;;;;;;5057485;28;19908;-11
2022/09/14 07:56:50;;;;;;;;;;;22.00;95.50;;;;;;5056657;28;19919;-11
2022/09/14 07:59:17;;;;;;;;;;;22.00;95.40;;;;;;5038736;28;19919;-11
2022/09/14 08:01:42;;;;;;;;;;;22.10;95.50;;;;;;5056235;28;19916;-11
2022/09/14 08:04:08;;;;;;;;;;;22.10;95.40;;;;;;5056741;28;19970;-11
2022/09/14 08:06:33;;;;;;;;;;;22.10;95.40;;;;;;5056676;28;19913;-11
2022/09/14 08:09:04;;;;;;;;;;;22.10;95.40;;;;;;5039553;28;19974;-11
2022/09/14 08:11:30;;;;;;;;;;;22.00;95.30;;;;;;5056588;28;19971;-11
2022/09/14 08:13:56;;;;;;;;;;;22.00;95.30;;;;;;5055199;28;19971;-11
2022/09/14 08:16:22;;;;;;;;;;;22.00;95.30;;;;;;5054313;28;19940;-11
2022/09/14 08:18:51;;;;;;;;;;;22.00;95.30;;;;;;5054573;28;20274;-11
2022/09/14 08:21:16;;;;;;;;;;;22.00;95.30;;;;;;5053141;28;20004;-11
2022/09/14 08:23:42;;;;;;;;;;;22.00;95.20;;;;;;5050004;28;20000;-11
2022/09/14 08:26:09;;;;;;;;;;;22.00;95.30;;;;;;5051770;28;19908;-11
2022/09/14 08:28:35;;;;;;;;;;;22.00;95.30;;;;;;5051854;28;20000;-11
2022/09/14 08:31:11;;;;;;;;;;;22.00;95.20;;;;;;5035042;28;20015;-11
2022/09/14 08:33:39;;;;;;;;;;;22.00;95.20;;;;;;5054207;28;19939;-11
2022/09/14 08:36:08;;;;;;;;;;;22.00;95.20;;;;;;5053216;28;19908;-11
2022/09/14 08:38:33;;;;;;;;;;;22.00;95.50;;;;;;5055626;28;19955;-11
2022/09/14 08:41:05;;;;;;;;;;;22.00;95.20;;;;;;5054123;28;19971;-11
2022/09/14 08:43:31;;;;;;;;;;;21.90;95.20;;;;;;5051700;28;19913;-11
2022/09/14 08:46:00;;;;;;;;;;;22.00;95.30;;;;;;5053614;28;19924;-11
2022/09/14 08:48:30;;;;;;;;;;;21.90;95.20;;;;;;5051891;28;19916;-11
2022/09/14 08:50:56;;;;;;;;;;;21.90;95.20;;;;;;5052814;28;19917;-11
2022/09/14 08:53:23;;;;;;;;;;;21.90;95.20;;;;;;5062248;28;19920;-11
2022/09/14 08:55:51;;;;;;;;;;;21.90;95.20;;;;;;5061836;28;19909;-11
2022/09/14 08:58:35;;;;;;;;;;;21.90;95.20;;;;;;5060334;28;20119;-11
2022/09/14 09:01:10;;;;;;;;;;;21.90;95.20;;;;;;5053557;28;19913;-11
2022/09/14 09:03:54;;;;;;;;;;;21.90;95.20;;;;;;5070747;28;20057;-11
2022/09/14 09:06:49;;;;;;;;;;;21.90;95.20;;;;;;5052750;28;20115;-11
2022/09/14 09:09:17;;;;;;;;;;;21.90;95.20;;;;;;4983306;28;20000;-11
2022/09/14 09:11:45;;;;;;;;;;;21.90;95.10;;;;;;5073289;28;19908;-11
2022/09/14 09:14:19;;;;;;;;;;;21.90;95.20;;;;;;5072606;28;19915;-11
2022/09/14 09:16:49;;;;;;;;;;;21.90;95.20;;;;;;5073333;28;20185;-11
2022/09/14 09:19:18;;;;;;;;;;;21.90;95.20;;;;;;5069659;28;19991;-11
2022/09/14 09:21:44;;;;;;;;;;;21.90;95.20;;;;;;5071287;28;19914;-11
2022/09/14 09:24:21;;;;;;;;;;;21.90;95.20;;;;;;5069436;28;19920;-11
2022/09/14 09:26:47;;;;;;;;;;;21.90;95.20;;;;;;5075201;28;19908;-11
2022/09/14 09:29:13;;;;;;;;;;;21.90;95.20;;;;;;5060751;28;19909;-11
2022/09/14 09:31:42;;;;;;;;;;;21.90;95.20;;;;;;5077828;28;19916;-11
2022/09/14 09:34:13;;;;;;;;;;;21.90;95.20;;;;;;5078320;28;19951;-11
2022/09/14 09:36:39;;;;;;;;;;;21.80;95.20;;;;;;5075950;28;19919;-11
2022/09/14 09:39:05;;;;;;;;;;;21.80;95.20;;;;;;5078025;28;19909;-11
2022/09/14 09:41:41;;;;;;;;;;;21.80;95.20;;;;;;5078162;28;20184;-11
2022/09/14 09:44:10;;;;;;;;;;;21.80;95.30;;;;;;5060627;28;19927;-11
2022/09/14 09:46:37;;;;;;;;;;;21.80;95.20;;;;;;5078186;28;19915;-11
2022/09/14 09:49:15;;;;;;;;;;;21.80;95.30;;;;;;5077695;28;20281;-11
2022/09/14 09:51:41;;;;;;;;;;;21.80;95.30;;;;;;5078399;28;20364;-11
2022/09/14 09:54:13;;;;;;;;;;;21.80;95.30;;;;;;5076777;28;20007;-11
2022/09/14 09:56:58;;;;;;;;;;;21.80;95.30;;;;;;5060201;28;20170;-11
2022/09/14 09:59:36;;;;;;;;;;;21.80;95.30;;;;;;5059638;28;20520;-11
2022/09/14 10:02:20;;;;;;;;;;;21.80;95.40;;;;;;5075148;28;20271;-11
2022/09/14 10:05:00;;;;;;;;;;;21.70;95.30;;;;;;5071921;28;19919;-11
2022/09/14 10:07:27;;;;;;;;;;;21.80;95.40;;;;;;5071815;28;20280;-11
2022/09/14 10:10:19;;;;;;;;;;;21.80;95.40;;;;;;5069847;28;19919;-11
2022/09/14 10:12:46;;;;;;;;;;;21.80;95.40;;;;;;5031763;28;19908;-11
2022/09/14 10:15:15;;;;;;;;;;;21.70;95.30;;;;;;5052776;28;20132;-11
2022/09/14 10:18:01;;;;;;;;;;;21.70;95.30;;;;;;5068491;28;19909;-11
2022/09/14 10:20:26;;;;;;;;;;;21.70;95.30;;;;;;5068276;28;19931;-11
2022/09/14 10:22:52;;;;;;;;;;;21.70;95.30;;;;;;5070341;28;20240;-11
2022/09/14 10:25:18;;;;;;;;;;;21.70;95.30;;;;;;5070469;28;19921;-11
2022/09/14 10:27:47;;;;;;;;;;;21.80;95.30;;;;;;5069908;28;19909;-11
2022/09/14 10:30:16;;;;;;;;;;;21.70;95.30;;;;;;5070027;28;19919;-11
2022/09/14 10:32:53;;;;;;;;;;;21.70;95.30;;;;;;5070837;28;19939;-11
2022/09/14 10:35:19;;;;;;;;;;;21.70;95.30;;;;;;5069363;28;20225;-11
2022/09/14 10:37:51;;;;;;;;;;;21.70;95.30;;;;;;5053450;28;19908;-11
2022/09/14 10:40:23;;;;;;;;;;;21.70;95.30;;;;;;5070754;28;19908;-11
2022/09/14 10:42:55;;;;;;;;;;;21.70;95.30;;;;;;5070550;28;20093;-11
2022/09/14 10:45:29;;;;;;;;;;;21.70;95.20;;;;;;5069764;28;19919;-11
2022/09/14 10:48:05;;;;;;;;;;;21.70;95.20;;;;;;5068266;28;19966;-11
2022/09/14 10:50:49;;;;;;;;;;;21.70;95.20;;;;;;5050011;28;20286;-11
2022/09/14 10:53:32;;;;;;;;;;;21.70;95.10;;;;;;5067419;28;19998;-11
2022/09/14 10:56:08;;;;;;;;;;;21.80;95.10;;;;;;5068837;28;20219;-11
2022/09/14 10:58:53;;;;;;;;;;;21.70;95.10;;;;;;5068428;28;20143;-11
2022/09/14 11:01:26;;;;;;;;;;;21.70;95.10;;;;;;5068870;28;19928;-11
2022/09/14 11:03:52;;;;;;;;;;;21.70;95.10;;;;;;5068836;28;19909;-11
2022/09/14 11:06:30;;;;;;;;;;;21.70;95.00;;;;;;5069151;28;19918;-11
2022/09/14 11:08:58;;;;;;;;;;;21.70;95.10;;;;;;5051868;28;19963;-11
2022/09/14 11:11:24;;;;;;;;;;;21.70;95.10;;;;;;5053086;28;19987;-11
2022/09/14 11:14:08;;;;;;;;;;;21.70;95.10;;;;;;5050860;28;19938;-11
2022/09/14 11:16:47;;;;;;;;;;;21.70;95.10;;;;;;5067621;28;20269;-11
2022/09/14 11:19:31;;;;;;;;;;;21.70;95.10;;;;;;5066501;28;20072;-11
2022/09/14 11:22:18;;;;;;;;;;;21.70;95.10;;;;;;5048884;28;20318;-11
2022/09/14 11:25:11;;;;;;;;;;;21.70;95.10;;;;;;5068155;28;19913;-11
2022/09/14 11:27:36;;;;;;;;;;;21.70;95.20;;;;;;5029211;28;19924;-11
2022/09/14 11:30:14;;;;;;;;;;;21.70;95.20;;;;;;5067751;28;19908;-11
2022/09/14 11:33:00;;;;;;;;;;;21.70;95.20;;;;;;5066974;28;19912;-11
2022/09/14 11:35:29;;;;;;;;;;;21.70;95.20;;;;;;5066324;28;19909;-11
2022/09/14 11:38:00;;;;;;;;;;;21.60;95.20;;;;;;5046741;28;20158;-11
2022/09/14 11:40:44;;;;;;;;;;;21.70;95.20;;;;;;5064728;28;19940;-11
2022/09/14 11:43:15;;;;;;;;;;;21.60;95.20;;;;;;5067342;28;19917;-11
2022/09/14 11:45:44;;;;;;;;;;;21.60;95.20;;;;;;5049042;28;19912;-11
2022/09/14 11:48:31;;;;;;;;;;;21.70;95.20;;;;;;5048969;28;20099;-11
2022/09/14 11:51:08;;;;;;;;;;;21.70;95.20;;;;;;5067056;28;19909;-11
2022/09/14 11:53:34;;;;;;;;;;;21.60;95.20;;;;;;5066824;28;19912;-11
2022/09/14 11:56:00;;;;;;;;;;;21.60;95.20;;;;;;5066405;28;20178;-11
2022/09/14 11:58:28;;;;;;;;;;;21.60;95.10;;;;;;5066982;28;20273;-11
2022/09/14 12:01:20;;;;;;;;;;;21.70;95.10;;;;;;5068073;28;19912;-11
2022/09/14 12:03:46;;;;;;;;;;;21.70;95.10;;;;;;5029744;28;20010;-11
2022/09/14 12:06:30;;;;;;;;;;;21.70;95.10;;;;;;5068493;28;20045;-11
2022/09/14 12:09:23;;;;;;;;;;;21.70;95.00;;;;;;5067839;28;19954;-11
2022/09/14 12:11:49;;;;;;;;;;;21.70;95.00;;;;;;5038580;28;19965;-11
2022/09/14 12:14:21;;;;;;;;;;;21.70;94.90;;;;;;5069229;28;19918;-11
2022/09/14 12:17:05;;;;;;;;;;;21.70;94.90;;;;;;5068902;28;20038;-11
2022/09/14 12:19:31;;;;;;;;;;;21.70;94.90;;;;;;5067078;28;20200;-11
2022/09/14 12:22:16;;;;;;;;;;;21.70;94.80;;;;;;5049970;28;19919;-11
2022/09/14 12:24:42;;;;;;;;;;;21.70;94.80;;;;;;5066231;28;20276;-11
2022/09/14 12:27:21;;;;;;;;;;;21.70;94.80;;;;;;5067887;28;19940;-11
2022/09/14 12:29:46;;;;;;;;;;;21.70;94.80;;;;;;5048310;28;19974;-11
2022/09/14 12:32:25;;;;;;;;;;;21.80;94.80;;;;;;5050379;28;19912;-11
2022/09/14 12:35:10;;;;;;;;;;;21.80;94.80;;;;;;5050524;28;19913;-11
2022/09/14 12:37:35;;;;;;;;;;;21.80;94.70;;;;;;5066813;28;19923;-11
2022/09/14 12:40:32;;;;;;;;;;;21.80;94.70;;;;;;5048802;28;19908;-11
2022/09/14 12:43:17;;;;;;;;;;;21.80;94.70;;;;;;5045309;28;19908;-11
2022/09/14 12:45:50;;;;;;;;;;;21.80;94.70;;;;;;5065621;28;20466;-11
2022/09/14 12:48:34;;;;;;;;;;;21.80;94.70;;;;;;5067887;28;19909;-11
2022/09/14 12:51:01;;;;;;;;;;;21.80;94.70;;;;;;5067571;28;19967;-11
2022/09/14 12:53:30;;;;;;;;;;;21.80;94.80;;;;;;5067170;28;19958;-11
2022/09/14 12:55:59;;;;;;;;;;;21.80;94.80;;;;;;5066145;28;19923;-11
2022/09/14 12:58:30;;;;;;;;;;;21.80;94.80;;;;;;5065214;28;19920;-11
2022/09/14 13:01:14;;;;;;;;;;;21.80;94.80;;;;;;5066088;28;20037;-11
2022/09/14 13:03:39;;;;;;;;;;;21.80;94.80;;;;;;5066385;28;20011;-11
2022/09/14 13:06:09;;;;;;;;;;;21.80;94.90;;;;;;5050144;28;20004;-11
2022/09/14 13:08:35;;;;;;;;;;;21.80;94.80;;;;;;5047972;28;20455;-11
2022/09/14 13:11:00;;;;;;;;;;;21.80;94.80;;;;;;5069512;28;20007;-11
2022/09/14 13:13:29;;;;;;;;;;;21.80;94.80;;;;;;5069521;28;19970;-11
2022/09/14 13:15:58;;;;;;;;;;;21.80;94.80;;;;;;5070492;28;19916;-11
2022/09/14 13:18:27;;;;;;;;;;;21.80;94.80;;;;;;5053964;28;19916;-11
2022/09/14 13:20:53;;;;;;;;;;;21.80;94.80;;;;;;5069640;28;20128;-11
2022/09/14 13:23:25;;;;;;;;;;;21.80;94.80;;;;;;5072808;28;19912;-11
2022/09/14 13:25:55;;;;;;;;;;;21.80;94.90;;;;;;5070201;28;20136;-11
2022/09/14 13:28:23;;;;;;;;;;;21.80;94.90;;;;;;5069973;28;20276;-11
2022/09/14 13:31:00;;;;;;;;;;;21.80;94.90;;;;;;5070657;28;20404;-11
2022/09/14 13:33:26;;;;;;;;;;;21.70;94.90;;;;;;5070569;28;19916;-11
2022/09/14 13:35:54;;;;;;;;;;;21.80;94.90;;;;;;5069990;28;19920;-11
2022/09/14 13:38:28;;;;;;;;;;;21.80;94.90;;;;;;5070267;28;20333;-11
2022/09/14 13:40:55;;;;;;;;;;;21.80;94.80;;;;;;5066986;28;19909;-11
2022/09/14 13:43:21;;;;;;;;;;;21.80;94.70;;;;;;5069175;28;19931;-11
2022/09/14 13:45:47;;;;;;;;;;;21.80;94.80;;;;;;5068596;28;19943;-11
2022/09/14 13:48:14;;;;;;;;;;;21.80;94.80;;;;;;5051138;28;20203;-11
2022/09/14 13:50:42;;;;;;;;;;;21.70;94.90;;;;;;5067997;28;19916;-11
2022/09/14 13:53:28;;;;;;;;;;;21.70;94.90;;;;;;5067710;28;20061;-11
2022/09/14 13:55:53;;;;;;;;;;;21.70;95.00;;;;;;5067919;28;19924;-11
2022/09/14 13:58:22;;;;;;;;;;;21.70;95.30;;;;;;5050484;28;19966;-11
2022/09/14 14:00:53;;;;;;;;;;;21.70;95.10;;;;;;5050889;28;19999;-11
2022/09/14 14:03:23;;;;;;;;;;;21.70;95.10;;;;;;5051209;28;19917;-11
2022/09/14 14:05:48;;;;;;;;;;;21.70;95.20;;;;;;5067775;28;19923;-11
2022/09/14 14:08:33;;;;;;;;;;;21.70;95.20;;;;;;5051280;28;19908;-11
2022/09/14 14:11:00;;;;;;;;;;;21.70;95.20;;;;;;5051396;28;19917;-11
2022/09/14 14:13:30;;;;;;;;;;;21.70;95.30;;;;;;5049504;28;19919;-11
2022/09/14 14:16:13;;;;;;;;;;;21.70;95.20;;;;;;5066536;28;19963;-11
2022/09/14 14:18:40;;;;;;;;;;;21.70;95.20;;;;;;5068364;28;19913;-11
2022/09/14 14:21:23;;;;;;;;;;;21.70;95.20;;;;;;5065743;28;19908;-11
2022/09/14 14:23:52;;;;;;;;;;;21.70;95.20;;;;;;5068918;28;20007;-11
2022/09/14 14:26:25;;;;;;;;;;;21.70;95.20;;;;;;5049824;28;20063;-11
2022/09/14 14:29:05;;;;;;;;;;;21.80;95.10;;;;;;5051272;28;19969;-11
2022/09/14 14:31:32;;;;;;;;;;;21.80;95.10;;;;;;5051219;28;19920;-11
2022/09/14 14:33:58;;;;;;;;;;;21.80;95.10;;;;;;5050764;28;20536;-11
2022/09/14 14:36:23;;;;;;;;;;;21.80;95.20;;;;;;5068043;28;19958;-11